createdAt,value
2019-02-23T00:00:18.446Z,43.85
2019-02-23T00:01:20.361Z,43.83
2019-02-23T00:02:18.424Z,43.83
2019-02-23T00:03:18.800Z,43.86
2019-02-23T00:04:18.536Z,43.84
2019-02-23T00:05:18.845Z,43.83
2019-02-23T00:06:30.452Z,43.9
2019-02-23T00:07:19.033Z,43.84
2019-02-23T00:08:18.445Z,43.84
2019-02-23T00:09:18.731Z,43.85
2019-02-23T00:10:19.357Z,43.83
2019-02-23T00:11:19.053Z,43.84
2019-02-23T00:12:18.570Z,43.84
2019-02-23T00:13:18.739Z,43.82
2019-02-23T00:14:18.417Z,43.83
2019-02-23T00:15:18.490Z,43.83
2019-02-23T00:16:20.411Z,43.8
2019-02-23T00:17:18.871Z,43.84
2019-02-23T00:18:18.820Z,43.83
2019-02-23T00:19:25.482Z,43.82
2019-02-23T00:20:18.452Z,43.81
2019-02-23T00:21:18.746Z,43.77
2019-02-23T00:22:18.817Z,43.77
2019-02-23T00:23:18.962Z,43.79
2019-02-23T00:24:19.035Z,43.78
2019-02-23T00:25:18.732Z,43.78
2019-02-23T00:26:18.364Z,43.78
2019-02-23T00:27:18.848Z,43.78
2019-02-23T00:28:18.800Z,43.78
2019-02-23T00:29:18.785Z,43.79
2019-02-23T00:30:18.767Z,43.76
2019-02-23T00:31:18.498Z,43.78
2019-02-23T00:32:19.240Z,43.76
2019-02-23T00:33:19.728Z,43.81
2019-02-23T00:34:19.273Z,43.74
2019-02-23T00:35:19.137Z,43.74
2019-02-23T00:36:18.950Z,43.76
2019-02-23T00:37:18.836Z,43.75
2019-02-23T00:38:18.359Z,43.74
2019-02-23T00:39:18.195Z,43.71
2019-02-23T00:40:18.339Z,43.78
2019-02-23T00:41:18.648Z,43.72
2019-02-23T00:42:18.657Z,43.75
2019-02-23T00:43:18.763Z,43.72
2019-02-23T00:44:19.194Z,43.76
2019-02-23T00:45:18.366Z,43.72
2019-02-23T00:46:18.802Z,43.69
2019-02-23T00:47:18.471Z,43.73
2019-02-23T00:48:18.350Z,43.74
2019-02-23T00:49:18.828Z,43.71
2019-02-23T00:50:18.819Z,43.7
2019-02-23T00:51:18.622Z,43.7
2019-02-23T00:52:18.846Z,43.72
2019-02-23T00:53:18.428Z,43.76
2019-02-23T00:54:19.356Z,43.73
2019-02-23T00:55:18.696Z,43.7
2019-02-23T00:56:18.577Z,43.67
2019-02-23T00:57:18.756Z,43.76
2019-02-23T00:58:19.074Z,43.71
2019-02-23T00:59:18.795Z,43.68
2019-02-23T01:00:18.725Z,43.72
2019-02-23T01:01:18.439Z,43.71
2019-02-23T01:02:18.415Z,43.7
2019-02-23T01:03:18.716Z,43.68
2019-02-23T01:04:18.816Z,43.71
2019-02-23T01:05:18.313Z,43.7
2019-02-23T01:06:20.256Z,43.69
2019-02-23T01:07:19.021Z,43.7
2019-02-23T01:08:18.848Z,43.68
2019-02-23T01:09:18.317Z,43.69
2019-02-23T01:10:20.081Z,43.69
2019-02-23T01:11:18.443Z,43.73
2019-02-23T01:12:18.570Z,43.7
2019-02-23T01:13:18.471Z,43.7
2019-02-23T01:14:18.575Z,43.7
2019-02-23T01:15:19.371Z,43.7
2019-02-23T01:16:19.121Z,43.68
2019-02-23T01:17:18.366Z,43.67
2019-02-23T01:18:18.914Z,43.69
2019-02-23T01:19:18.625Z,43.68
2019-02-23T01:20:18.821Z,43.71
2019-02-23T01:21:18.856Z,43.66
2019-02-23T01:22:18.557Z,43.69
2019-02-23T01:23:20.582Z,43.69
2019-02-23T01:24:18.821Z,43.67
2019-02-23T01:25:18.729Z,43.69
2019-02-23T01:26:18.761Z,43.75
2019-02-23T01:27:18.959Z,43.7
2019-02-23T01:28:18.278Z,43.66
2019-02-23T01:29:18.490Z,43.69
2019-02-23T01:30:18.787Z,43.68
2019-02-23T01:31:18.794Z,43.7
2019-02-23T01:32:18.704Z,43.65
2019-02-23T01:33:19.003Z,43.67
2019-02-23T01:34:18.784Z,43.69
2019-02-23T01:35:18.811Z,43.66
2019-02-23T01:36:18.531Z,43.7
2019-02-23T01:37:19.062Z,43.67
2019-02-23T01:38:20.372Z,43.69
2019-02-23T01:39:18.262Z,43.67
2019-02-23T01:40:18.777Z,43.64
2019-02-23T01:41:18.749Z,43.66
2019-02-23T01:42:18.258Z,43.64
2019-02-23T01:43:18.807Z,43.61
2019-02-23T01:44:18.418Z,43.65
2019-02-23T01:45:18.365Z,43.64
2019-02-23T01:46:18.695Z,43.61
2019-02-23T01:47:18.822Z,43.64
2019-02-23T01:48:18.484Z,43.65
2019-02-23T01:49:18.450Z,43.65
2019-02-23T01:50:18.521Z,43.65
2019-02-23T01:51:18.359Z,43.63
2019-02-23T01:52:18.403Z,43.66
2019-02-23T01:53:20.385Z,43.64
2019-02-23T01:54:18.451Z,43.63
2019-02-23T01:55:18.437Z,43.66
2019-02-23T01:56:18.536Z,43.62
2019-02-23T01:57:19.303Z,43.64
2019-02-23T01:58:19.403Z,43.68
2019-02-23T01:59:18.822Z,43.63
2019-02-23T02:00:18.451Z,43.63
2019-02-23T02:01:18.728Z,43.67
2019-02-23T02:02:18.248Z,43.63
2019-02-23T02:03:20.294Z,43.64
2019-02-23T02:04:18.924Z,43.64
2019-02-23T02:05:18.637Z,43.64
2019-02-23T02:06:18.439Z,43.61
2019-02-23T02:07:18.853Z,43.64
2019-02-23T02:08:18.377Z,43.64
2019-02-23T02:09:19.401Z,43.63
2019-02-23T02:10:19.212Z,43.65
2019-02-23T02:11:18.473Z,43.6
2019-02-23T02:12:18.469Z,43.61
2019-02-23T02:13:18.852Z,43.6
2019-02-23T02:14:18.800Z,43.64
2019-02-23T02:15:18.877Z,43.65
2019-02-23T02:16:19.223Z,43.62
2019-02-23T02:17:18.418Z,43.58
2019-02-23T02:18:18.695Z,43.61
2019-02-23T02:19:18.831Z,43.64
2019-02-23T02:20:19.068Z,43.64
2019-02-23T02:21:18.750Z,43.64
2019-02-23T02:22:18.445Z,43.59
2019-02-23T02:23:18.567Z,43.53
2019-02-23T02:24:18.875Z,43.55
2019-02-23T02:25:19.063Z,43.54
2019-02-23T02:26:18.571Z,43.59
2019-02-23T02:27:18.990Z,43.58
2019-02-23T02:28:18.768Z,43.61
2019-02-23T02:29:18.797Z,43.55
2019-02-23T02:30:18.835Z,43.55
2019-02-23T02:31:18.649Z,43.55
2019-02-23T02:32:20.309Z,43.59
2019-02-23T02:33:18.404Z,43.6
2019-02-23T02:34:18.581Z,43.6
2019-02-23T02:35:18.884Z,43.52
2019-02-23T02:36:18.563Z,43.61
2019-02-23T02:37:18.318Z,43.57
2019-02-23T02:38:18.955Z,43.55
2019-02-23T02:39:18.566Z,43.58
2019-02-23T02:40:18.741Z,43.6
2019-02-23T02:41:19.043Z,43.6
2019-02-23T02:42:18.955Z,43.58
2019-02-23T02:43:18.393Z,43.58
2019-02-23T02:44:18.836Z,43.56
2019-02-23T02:45:18.328Z,43.57
2019-02-23T02:46:18.508Z,43.54
2019-02-23T02:47:19.713Z,43.56
2019-02-23T02:48:18.526Z,43.59
2019-02-23T02:49:19.035Z,43.59
2019-02-23T02:50:25.175Z,43.62
2019-02-23T02:51:18.342Z,43.57
2019-02-23T02:52:18.827Z,43.54
2019-02-23T02:53:18.530Z,43.57
2019-02-23T02:54:18.595Z,43.54
2019-02-23T02:55:18.965Z,43.49
2019-02-23T02:56:19.226Z,43.55
2019-02-23T02:57:18.518Z,43.57
2019-02-23T02:58:18.792Z,43.51
2019-02-23T02:59:18.577Z,43.56
2019-02-23T03:00:18.675Z,43.56
2019-02-23T03:01:18.494Z,43.53
2019-02-23T03:02:18.866Z,43.59
2019-02-23T03:03:18.272Z,43.53
2019-02-23T03:04:18.805Z,43.53
2019-02-23T03:05:18.924Z,43.52
2019-02-23T03:06:18.974Z,43.55
2019-02-23T03:07:18.784Z,43.49
2019-02-23T03:08:18.741Z,43.54
2019-02-23T03:09:18.360Z,43.5
2019-02-23T03:10:19.028Z,43.52
2019-02-23T03:11:18.626Z,43.46
2019-02-23T03:12:18.819Z,43.48
2019-02-23T03:13:18.944Z,43.48
2019-02-23T03:14:18.317Z,43.53
2019-02-23T03:15:18.707Z,43.49
2019-02-23T03:16:18.494Z,43.5
2019-02-23T03:17:18.429Z,43.51
2019-02-23T03:18:18.332Z,43.48
2019-02-23T03:19:18.261Z,43.52
2019-02-23T03:20:18.286Z,43.49
2019-02-23T03:21:18.645Z,43.48
2019-02-23T03:22:20.123Z,43.49
2019-02-23T03:23:18.288Z,43.49
2019-02-23T03:24:18.373Z,43.48
2019-02-23T03:25:18.438Z,43.52
2019-02-23T03:26:20.321Z,43.49
2019-02-23T03:27:19.201Z,43.51
2019-02-23T03:28:18.809Z,43.51
2019-02-23T03:29:18.617Z,43.44
2019-02-23T03:30:19.008Z,43.48
2019-02-23T03:31:18.467Z,43.48
2019-02-23T03:32:18.561Z,43.44
2019-02-23T03:33:18.614Z,43.45
2019-02-23T03:34:18.438Z,43.46
2019-02-23T03:35:19.092Z,43.49
2019-02-23T03:36:18.205Z,43.48
2019-02-23T03:37:18.435Z,43.45
2019-02-23T03:38:18.720Z,43.49
2019-02-23T03:39:18.488Z,43.44
2019-02-23T03:40:18.601Z,43.42
2019-02-23T03:41:18.422Z,43.45
2019-02-23T03:42:18.649Z,43.4
2019-02-23T03:43:18.615Z,43.43
2019-02-23T03:44:18.252Z,43.46
2019-02-23T03:45:18.549Z,43.4
2019-02-23T03:46:19.067Z,43.44
2019-02-23T03:47:18.626Z,43.46
2019-02-23T03:48:18.371Z,43.42
2019-02-23T03:49:19.267Z,43.44
2019-02-23T03:50:18.561Z,43.44
2019-02-23T03:51:18.625Z,43.44
2019-02-23T03:52:19.370Z,43.42
2019-02-23T03:53:18.331Z,43.36
2019-02-23T03:54:18.829Z,43.35
2019-02-23T03:55:18.944Z,43.43
2019-02-23T03:56:18.495Z,43.4
2019-02-23T03:57:18.443Z,43.42
2019-02-23T03:58:18.864Z,43.39
2019-02-23T03:59:18.235Z,43.38
2019-02-23T04:00:18.372Z,43.42
2019-02-23T04:01:18.528Z,43.35
2019-02-23T04:02:18.923Z,43.39
2019-02-23T04:03:20.343Z,43.38
2019-02-23T04:04:18.763Z,43.42
2019-02-23T04:05:18.487Z,43.41
2019-02-23T04:06:18.332Z,43.41
2019-02-23T04:07:19.314Z,43.39
2019-02-23T04:08:18.996Z,43.38
2019-02-23T04:09:18.429Z,43.4
2019-02-23T04:10:20.149Z,43.38
2019-02-23T04:11:18.365Z,43.39
2019-02-23T04:12:19.056Z,43.44
2019-02-23T04:13:20.339Z,43.42
2019-02-23T04:14:18.734Z,43.37
2019-02-23T04:15:19.069Z,43.42
2019-02-23T04:16:18.326Z,43.37
2019-02-23T04:17:18.785Z,43.38
2019-02-23T04:18:18.691Z,43.35
2019-02-23T04:19:18.600Z,43.35
2019-02-23T04:20:18.453Z,43.34
2019-02-23T04:21:18.353Z,43.36
2019-02-23T04:22:18.898Z,43.33
2019-02-23T04:23:20.301Z,43.31
2019-02-23T04:24:18.503Z,43.33
2019-02-23T04:25:18.715Z,43.34
2019-02-23T04:26:18.495Z,43.34
2019-02-23T04:27:18.416Z,43.34
2019-02-23T04:28:18.658Z,43.37
2019-02-23T04:29:19.456Z,43.34
2019-02-23T04:30:18.376Z,43.33
2019-02-23T04:31:18.678Z,43.36
2019-02-23T04:32:18.792Z,43.35
2019-02-23T04:33:20.220Z,43.32
2019-02-23T04:34:18.683Z,43.31
2019-02-23T04:35:18.461Z,43.32
2019-02-23T04:36:18.418Z,43.31
2019-02-23T04:37:18.555Z,43.31
2019-02-23T04:38:19.031Z,43.33
2019-02-23T04:39:18.710Z,43.32
2019-02-23T04:40:18.548Z,43.29
2019-02-23T04:41:18.746Z,43.27
2019-02-23T04:42:18.425Z,43.28
2019-02-23T04:43:19.016Z,43.27
2019-02-23T04:44:18.627Z,43.29
2019-02-23T04:45:18.483Z,43.31
2019-02-23T04:46:18.911Z,43.32
2019-02-23T04:47:18.219Z,43.29
2019-02-23T04:48:18.538Z,43.31
2019-02-23T04:49:18.767Z,43.33
2019-02-23T04:50:19.561Z,43.33
2019-02-23T04:51:19.256Z,43.31
2019-02-23T04:52:18.833Z,43.33
2019-02-23T04:53:18.315Z,43.34
2019-02-23T04:54:18.652Z,43.39
2019-02-23T04:55:18.618Z,43.45
2019-02-23T04:56:20.203Z,43.45
2019-02-23T04:57:18.446Z,43.51
2019-02-23T04:58:20.059Z,43.48
2019-02-23T04:59:18.573Z,43.45
2019-02-23T05:00:18.557Z,43.47
2019-02-23T05:01:18.597Z,43.44
2019-02-23T05:02:18.908Z,43.41
2019-02-23T05:03:19.266Z,43.39
2019-02-23T05:04:20.011Z,43.39
2019-02-23T05:05:18.707Z,43.34
2019-02-23T05:06:18.532Z,43.34
2019-02-23T05:07:18.443Z,43.3
2019-02-23T05:08:18.706Z,43.25
2019-02-23T05:09:18.944Z,43.32
2019-02-23T05:10:18.614Z,43.26
2019-02-23T05:11:18.502Z,43.25
2019-02-23T05:12:18.491Z,43.24
2019-02-23T05:13:18.356Z,43.25
2019-02-23T05:14:18.864Z,43.29
2019-02-23T05:15:18.409Z,43.29
2019-02-23T05:16:18.566Z,43.27
2019-02-23T05:17:18.881Z,43.26
2019-02-23T05:18:18.615Z,43.26
2019-02-23T05:19:18.719Z,43.34
2019-02-23T05:20:18.903Z,43.23
2019-02-23T05:21:27.290Z,43.32
2019-02-23T05:22:18.432Z,43.34
2019-02-23T05:23:18.821Z,43.34
2019-02-23T05:24:18.742Z,43.31
2019-02-23T05:25:18.307Z,43.31
2019-02-23T05:26:18.761Z,43.38
2019-02-23T05:27:18.261Z,43.36
2019-02-23T05:28:18.994Z,43.31
2019-02-23T05:29:18.136Z,43.29
2019-02-23T05:30:18.556Z,43.32
2019-02-23T05:31:18.425Z,43.36
2019-02-23T05:32:18.390Z,43.32
2019-02-23T05:33:19.173Z,43.33
2019-02-23T05:34:18.223Z,43.36
2019-02-23T05:35:18.512Z,43.33
2019-02-23T05:36:18.455Z,43.36
2019-02-23T05:37:18.716Z,43.33
2019-02-23T05:38:18.227Z,43.35
2019-02-23T05:39:18.458Z,43.32
2019-02-23T05:40:18.606Z,43.37
2019-02-23T05:41:18.265Z,43.31
2019-02-23T05:42:18.640Z,43.26
2019-02-23T05:43:18.571Z,43.31
2019-02-23T05:44:18.458Z,43.3
2019-02-23T05:45:18.811Z,43.31
2019-02-23T05:46:18.650Z,43.32
2019-02-23T05:47:18.718Z,43.34
2019-02-23T05:48:18.562Z,43.26
2019-02-23T05:49:18.686Z,43.26
2019-02-23T05:50:18.376Z,43.28
2019-02-23T05:51:18.457Z,43.28
2019-02-23T05:52:18.299Z,43.26
2019-02-23T05:53:18.370Z,43.27
2019-02-23T05:54:18.488Z,43.25
2019-02-23T05:55:20.151Z,43.27
2019-02-23T05:56:18.479Z,43.27
2019-02-23T05:57:18.559Z,43.29
2019-02-23T05:58:18.175Z,43.26
2019-02-23T05:59:18.603Z,43.22
2019-02-23T06:00:18.496Z,43.23
2019-02-23T06:01:18.671Z,43.24
2019-02-23T06:02:18.465Z,43.24
2019-02-23T06:03:20.076Z,43.23
2019-02-23T06:04:20.120Z,43.24
2019-02-23T06:05:18.835Z,43.25
2019-02-23T06:06:18.635Z,43.24
2019-02-23T06:07:18.470Z,43.19
2019-02-23T06:08:18.316Z,43.21
2019-02-23T06:09:18.946Z,43.19
2019-02-23T06:10:18.678Z,43.17
2019-02-23T06:11:18.446Z,43.18
2019-02-23T06:12:18.482Z,43.18
2019-02-23T06:13:18.257Z,43.2
2019-02-23T06:14:18.528Z,43.16
2019-02-23T06:15:18.198Z,43.14
2019-02-23T06:16:19.317Z,43.14
2019-02-23T06:17:19.128Z,43.16
2019-02-23T06:18:18.341Z,43.12
2019-02-23T06:19:18.540Z,43.15
2019-02-23T06:20:19.166Z,43.12
2019-02-23T06:21:18.582Z,43.11
2019-02-23T06:22:18.856Z,43.12
2019-02-23T06:23:20.295Z,43.08
2019-02-23T06:24:18.192Z,43.06
2019-02-23T06:25:18.362Z,43.07
2019-02-23T06:26:18.215Z,43.09
2019-02-23T06:27:18.222Z,43.07
2019-02-23T06:28:18.121Z,43.03
2019-02-23T06:29:18.289Z,43.06
2019-02-23T06:30:18.834Z,43.01
2019-02-23T06:31:19.215Z,42.99
2019-02-23T06:32:18.821Z,42.98
2019-02-23T06:33:18.532Z,43
2019-02-23T06:34:18.961Z,42.99
2019-02-23T06:35:19.013Z,43
2019-02-23T06:36:18.560Z,42.98
2019-02-23T06:37:18.515Z,42.97
2019-02-23T06:38:19.717Z,42.96
2019-02-23T06:39:18.669Z,42.96
2019-02-23T06:40:18.589Z,43
2019-02-23T06:41:18.977Z,42.95
2019-02-23T06:42:18.269Z,42.9
2019-02-23T06:43:18.475Z,42.89
2019-02-23T06:44:18.377Z,42.9
2019-02-23T06:45:18.353Z,42.9
2019-02-23T06:46:18.645Z,42.91
2019-02-23T06:47:18.414Z,42.89
2019-02-23T06:48:20.499Z,42.88
2019-02-23T06:49:18.505Z,42.86
2019-02-23T06:50:18.241Z,42.91
2019-02-23T06:51:18.942Z,42.85
2019-02-23T06:52:18.459Z,42.84
2019-02-23T06:53:18.562Z,42.83
2019-02-23T06:54:18.533Z,42.88
2019-02-23T06:55:18.797Z,42.81
2019-02-23T06:56:18.581Z,42.81
2019-02-23T06:57:18.789Z,42.81
2019-02-23T06:58:18.542Z,42.83
2019-02-23T06:59:18.354Z,42.79
2019-02-23T07:00:19.224Z,42.79
2019-02-23T07:01:18.167Z,42.76
2019-02-23T07:02:18.505Z,42.81
2019-02-23T07:03:18.558Z,42.8
2019-02-23T07:04:18.407Z,42.71
2019-02-23T07:05:18.816Z,42.7
2019-02-23T07:06:19.072Z,42.75
2019-02-23T07:07:18.819Z,42.72
2019-02-23T07:08:18.791Z,42.74
2019-02-23T07:09:18.589Z,42.74
2019-02-23T07:10:18.396Z,42.73
2019-02-23T07:11:18.320Z,42.73
2019-02-23T07:12:18.494Z,42.7
2019-02-23T07:13:18.907Z,42.69
2019-02-23T07:14:18.302Z,42.71
2019-02-23T07:15:18.300Z,42.7
2019-02-23T07:16:18.758Z,42.65
2019-02-23T07:17:18.789Z,42.65
2019-02-23T07:18:18.287Z,42.69
2019-02-23T07:19:18.415Z,42.67
2019-02-23T07:20:18.449Z,42.65
2019-02-23T07:21:19.138Z,42.64
2019-02-23T07:22:19.104Z,42.65
2019-02-23T07:23:18.965Z,42.64
2019-02-23T07:24:18.599Z,42.61
2019-02-23T07:25:18.918Z,42.67
2019-02-23T07:26:18.342Z,42.65
2019-02-23T07:27:18.487Z,42.59
2019-02-23T07:28:18.646Z,42.62
2019-02-23T07:29:18.814Z,42.62
2019-02-23T07:30:18.195Z,42.61
2019-02-23T07:31:18.395Z,42.69
2019-02-23T07:32:18.454Z,42.6
2019-02-23T07:33:33.605Z,42.57
2019-02-23T07:34:18.927Z,42.56
2019-02-23T07:35:18.315Z,42.6
2019-02-23T07:36:18.349Z,42.58
2019-02-23T07:37:18.391Z,42.57
2019-02-23T07:38:18.472Z,42.56
2019-02-23T07:39:18.336Z,42.56
2019-02-23T07:40:18.379Z,42.55
2019-02-23T07:41:18.401Z,42.58
2019-02-23T07:42:18.461Z,42.55
2019-02-23T07:43:19.076Z,42.58
2019-02-23T07:44:18.297Z,42.55
2019-02-23T07:45:18.629Z,42.57
2019-02-23T07:46:18.455Z,42.53
2019-02-23T07:47:18.965Z,42.56
2019-02-23T07:48:19.218Z,42.49
2019-02-23T07:49:19.176Z,42.54
2019-02-23T07:50:18.646Z,42.51
2019-02-23T07:51:18.380Z,42.5
2019-02-23T07:52:27.031Z,42.51
2019-02-23T07:53:18.584Z,42.47
2019-02-23T07:54:18.278Z,42.46
2019-02-23T07:55:18.380Z,42.45
2019-02-23T07:56:18.382Z,42.48
2019-02-23T07:57:18.293Z,42.41
2019-02-23T07:58:18.155Z,42.47
2019-02-23T07:59:18.632Z,42.5
2019-02-23T08:00:18.363Z,42.48
2019-02-23T08:01:18.452Z,42.38
2019-02-23T08:02:18.357Z,42.46
2019-02-23T08:03:18.469Z,42.43
2019-02-23T08:04:18.958Z,42.38
2019-02-23T08:05:20.226Z,42.45
2019-02-23T08:06:19.733Z,42.43
2019-02-23T08:07:18.910Z,42.42
2019-02-23T08:08:19.255Z,42.41
2019-02-23T08:09:19.061Z,42.38
2019-02-23T08:10:18.211Z,42.33
2019-02-23T08:11:20.262Z,42.42
2019-02-23T08:12:18.093Z,42.37
2019-02-23T08:13:18.717Z,42.35
2019-02-23T08:14:18.920Z,42.37
2019-02-23T08:15:18.620Z,42.34
2019-02-23T08:16:18.416Z,42.38
2019-02-23T08:17:18.311Z,42.34
2019-02-23T08:18:18.579Z,42.39
2019-02-23T08:19:18.510Z,42.29
2019-02-23T08:20:18.227Z,42.32
2019-02-23T08:21:18.438Z,42.34
2019-02-23T08:22:18.775Z,42.26
2019-02-23T08:23:18.367Z,42.32
2019-02-23T08:24:18.508Z,42.34
2019-02-23T08:25:18.979Z,42.32
2019-02-23T08:26:18.876Z,42.32
2019-02-23T08:27:18.426Z,42.27
2019-02-23T08:28:18.701Z,42.32
2019-02-23T08:29:18.248Z,42.26
2019-02-23T08:30:18.366Z,42.23
2019-02-23T08:31:18.478Z,42.31
2019-02-23T08:32:18.696Z,42.31
2019-02-23T08:33:18.798Z,42.24
2019-02-23T08:34:18.458Z,42.26
2019-02-23T08:35:20.094Z,42.28
2019-02-23T08:36:18.686Z,42.29
2019-02-23T08:37:18.341Z,42.28
2019-02-23T08:38:19.082Z,42.28
2019-02-23T08:39:18.507Z,42.28
2019-02-23T08:40:18.470Z,42.32
2019-02-23T08:41:18.717Z,42.29
2019-02-23T08:42:18.431Z,42.23
2019-02-23T08:43:21.093Z,42.26
2019-02-23T08:44:18.753Z,42.28
2019-02-23T08:45:18.329Z,42.24
2019-02-23T08:46:18.479Z,42.19
2019-02-23T08:47:19.672Z,42.28
2019-02-23T08:48:18.471Z,42.24
2019-02-23T08:49:18.733Z,42.18
2019-02-23T08:50:18.302Z,42.26
2019-02-23T08:51:19.013Z,42.19
2019-02-23T08:52:18.310Z,42.15
2019-02-23T08:53:18.625Z,42.18
2019-02-23T08:54:18.138Z,42.18
2019-02-23T08:55:18.538Z,42.18
2019-02-23T08:56:18.402Z,42.21
2019-02-23T08:57:18.745Z,42.17
2019-02-23T08:58:18.436Z,42.12
2019-02-23T08:59:18.383Z,42.48
2019-02-23T09:00:20.051Z,42.19
2019-02-23T09:01:18.233Z,42.17
2019-02-23T09:02:18.312Z,42.3
2019-02-23T09:03:18.472Z,42.35
2019-02-23T09:04:18.563Z,42.24
2019-02-23T09:05:18.054Z,42.21
2019-02-23T09:06:18.414Z,42.24
2019-02-23T09:07:20.162Z,42.08
2019-02-23T09:08:19.103Z,42.19
2019-02-23T09:09:18.921Z,42.33
2019-02-23T09:10:18.674Z,42.42
2019-02-23T09:11:20.030Z,42.49
2019-02-23T09:12:18.412Z,42.57
2019-02-23T09:13:18.528Z,42.59
2019-02-23T09:14:18.432Z,42.57
2019-02-23T09:15:18.543Z,42.63
2019-02-23T09:16:18.234Z,42.68
2019-02-23T09:17:18.629Z,42.69
2019-02-23T09:18:18.377Z,42.69
2019-02-23T09:19:19.872Z,42.71
2019-02-23T09:20:29.910Z,42.65
2019-02-23T09:21:18.391Z,42.74
2019-02-23T09:22:18.712Z,42.67
2019-02-23T09:23:18.394Z,42.7
2019-02-23T09:24:18.530Z,42.74
2019-02-23T09:25:18.444Z,42.67
2019-02-23T09:26:18.517Z,42.81
2019-02-23T09:27:18.297Z,43.26
2019-02-23T09:28:18.759Z,42.72
2019-02-23T09:29:18.896Z,42.79
2019-02-23T09:30:19.127Z,43.05
2019-02-23T09:31:19.194Z,42.85
2019-02-23T09:32:18.367Z,42.84
2019-02-23T09:33:19.101Z,42.67
2019-02-23T09:34:18.195Z,43.47
2019-02-23T09:35:18.445Z,43.48
2019-02-23T09:36:18.337Z,43.05
2019-02-23T09:37:18.380Z,43.1
2019-02-23T09:38:18.518Z,43.64
2019-02-23T09:39:18.246Z,42.83
2019-02-23T09:40:19.665Z,43.44
2019-02-23T09:41:18.552Z,43.22
2019-02-23T09:42:18.363Z,42.99
2019-02-23T09:43:19.156Z,43.27
2019-02-23T09:44:18.610Z,43.64
2019-02-23T09:45:18.575Z,43.31
2019-02-23T09:46:18.071Z,42.81
2019-02-23T09:47:18.139Z,42.75
2019-02-23T09:48:18.678Z,42.43
2019-02-23T09:49:18.453Z,42.44
2019-02-23T09:50:18.766Z,43.4
2019-02-23T09:51:17.982Z,42.93
2019-02-23T09:52:18.057Z,42.69
2019-02-23T09:53:18.613Z,42.77
2019-02-23T09:54:18.214Z,42.91
2019-02-23T09:55:18.502Z,43.01
2019-02-23T09:56:18.401Z,42.83
2019-02-23T09:57:18.153Z,42.92
2019-02-23T09:58:19.295Z,42.85
2019-02-23T09:59:18.282Z,43.11
2019-02-23T10:00:18.145Z,42.95
2019-02-23T10:01:18.584Z,43.09
2019-02-23T10:02:18.881Z,42.83
2019-02-23T10:03:18.395Z,43.49
2019-02-23T10:04:18.253Z,43.47
2019-02-23T10:05:18.329Z,43.29
2019-02-23T10:06:18.898Z,43.28
2019-02-23T10:07:18.728Z,43.35
2019-02-23T10:08:18.498Z,43.42
2019-02-23T10:09:18.528Z,42.89
2019-02-23T10:10:18.272Z,43.54
2019-02-23T10:11:18.932Z,42.44
2019-02-23T10:12:18.470Z,42.37
2019-02-23T10:13:18.970Z,42.08
2019-02-23T10:14:18.238Z,42.23
2019-02-23T10:15:18.696Z,42.2
2019-02-23T10:16:18.804Z,42.32
2019-02-23T10:17:19.123Z,42.44
2019-02-23T10:18:18.148Z,42.47
2019-02-23T10:19:18.523Z,42.39
2019-02-23T10:20:18.499Z,42.44
2019-02-23T10:21:19.262Z,42.83
2019-02-23T10:22:18.729Z,42.57
2019-02-23T10:23:22.821Z,42.94
2019-02-23T10:24:18.235Z,42.42
2019-02-23T10:25:18.365Z,42.49
2019-02-23T10:26:18.163Z,42.46
2019-02-23T10:27:18.648Z,42.83
2019-02-23T10:28:18.320Z,42.86
2019-02-23T10:29:18.370Z,42.85
2019-02-23T10:30:18.586Z,42.95
2019-02-23T10:31:18.704Z,42.39
2019-02-23T10:32:18.411Z,42.49
2019-02-23T10:33:18.282Z,42.38
2019-02-23T10:34:18.627Z,42.44
2019-02-23T10:35:19.143Z,42.42
2019-02-23T10:36:20.177Z,42.57
2019-02-23T10:37:18.524Z,42.6
2019-02-23T10:38:18.370Z,42.49
2019-02-23T10:39:18.431Z,42.48
2019-02-23T10:40:18.123Z,42.5
2019-02-23T10:41:18.302Z,42.51
2019-02-23T10:42:18.553Z,42.52
2019-02-23T10:43:18.395Z,42.53
2019-02-23T10:44:18.513Z,42.54
2019-02-23T10:45:18.668Z,42.64
2019-02-23T10:46:18.092Z,42.57
2019-02-23T10:47:18.250Z,42.54
2019-02-23T10:48:18.658Z,42.54
2019-02-23T10:49:18.159Z,42.48
2019-02-23T10:50:18.752Z,42.49
2019-02-23T10:51:18.836Z,42.41
2019-02-23T10:52:18.517Z,42.41
2019-02-23T10:53:18.345Z,42.41
2019-02-23T10:54:18.300Z,42.35
2019-02-23T10:55:18.215Z,42.34
2019-02-23T10:56:18.237Z,42.32
2019-02-23T10:57:19.693Z,42.3
2019-02-23T10:58:18.270Z,42.27
2019-02-23T10:59:18.288Z,42.28
2019-02-23T11:00:18.170Z,42.31
2019-02-23T11:01:19.033Z,42.24
2019-02-23T11:02:18.310Z,42.25
2019-02-23T11:03:18.496Z,42.25
2019-02-23T11:04:18.454Z,42.26
2019-02-23T11:05:18.719Z,42.26
2019-02-23T11:06:18.396Z,42.24
2019-02-23T11:07:20.081Z,42.22
2019-02-23T11:08:18.265Z,42.25
2019-02-23T11:09:18.511Z,42.2
2019-02-23T11:10:18.348Z,42.29
2019-02-23T11:11:17.955Z,42.19
2019-02-23T11:12:18.053Z,42.25
2019-02-23T11:13:18.486Z,42.26
2019-02-23T11:14:18.310Z,42.26
2019-02-23T11:15:18.280Z,42.21
2019-02-23T11:16:18.069Z,42.2
2019-02-23T11:17:18.516Z,42.22
2019-02-23T11:18:19.313Z,42.21
2019-02-23T11:19:18.734Z,42.2
2019-02-23T11:20:18.551Z,42.16
2019-02-23T11:21:18.945Z,42.1
2019-02-23T11:22:18.211Z,42.17
2019-02-23T11:23:18.140Z,42.14
2019-02-23T11:24:18.695Z,42.15
2019-02-23T11:25:18.392Z,42.15
2019-02-23T11:26:18.612Z,42.15
2019-02-23T11:27:18.174Z,42.13
2019-02-23T11:28:18.093Z,42.18
2019-02-23T11:29:18.185Z,42.15
2019-02-23T11:30:18.579Z,42.06
2019-02-23T11:31:18.463Z,42.1
2019-02-23T11:32:18.318Z,42.09
2019-02-23T11:33:18.654Z,42.11
2019-02-23T11:34:18.324Z,42.1
2019-02-23T11:35:18.292Z,42.18
2019-02-23T11:36:18.158Z,42.05
2019-02-23T11:37:18.398Z,42.18
2019-02-23T11:38:18.298Z,42.09
2019-02-23T11:39:18.164Z,42.09
2019-02-23T11:40:20.003Z,42.04
2019-02-23T11:41:18.479Z,42.09
2019-02-23T11:42:18.147Z,42.03
2019-02-23T11:43:18.218Z,42.01
2019-02-23T11:44:18.812Z,42.04
2019-02-23T11:45:18.245Z,42.01
2019-02-23T11:46:18.219Z,42.1
2019-02-23T11:47:18.357Z,42.03
2019-02-23T11:48:18.919Z,41.98
2019-02-23T11:49:18.423Z,42.03
2019-02-23T11:50:18.330Z,41.97
2019-02-23T11:51:18.304Z,41.99
2019-02-23T11:52:18.569Z,42.03
2019-02-23T11:53:18.250Z,41.98
2019-02-23T11:54:18.461Z,41.89
2019-02-23T11:55:18.555Z,41.96
2019-02-23T11:56:18.167Z,41.94
2019-02-23T11:57:18.408Z,42.02
2019-02-23T11:58:20.132Z,41.92
2019-02-23T11:59:19.102Z,41.99
2019-02-23T12:00:19.068Z,41.97
2019-02-23T12:01:18.841Z,41.98
2019-02-23T12:02:18.834Z,42.06
2019-02-23T12:03:18.678Z,42.13
2019-02-23T12:04:18.078Z,42.17
2019-02-23T12:05:18.269Z,42.09
2019-02-23T12:06:18.520Z,42.12
2019-02-23T12:07:18.351Z,42.24
2019-02-23T12:08:18.351Z,42.28
2019-02-23T12:09:18.308Z,42.28
2019-02-23T12:10:19.107Z,42.31
2019-02-23T12:11:18.500Z,42.35
2019-02-23T12:12:18.901Z,42.36
2019-02-23T12:13:20.016Z,42.2
2019-02-23T12:14:18.728Z,42.12
2019-02-23T12:15:18.427Z,42.03
2019-02-23T12:16:18.283Z,42.02
2019-02-23T12:17:18.196Z,42.07
2019-02-23T12:18:18.178Z,42.02
2019-02-23T12:19:18.519Z,42
2019-02-23T12:20:18.601Z,41.99
2019-02-23T12:21:18.148Z,42.1
2019-02-23T12:22:18.469Z,41.98
2019-02-23T12:23:19.165Z,41.94
2019-02-23T12:24:18.041Z,41.86
2019-02-23T12:25:18.907Z,41.89
2019-02-23T12:26:19.965Z,41.94
2019-02-23T12:27:18.295Z,41.89
2019-02-23T12:28:18.515Z,41.91
2019-02-23T12:29:18.727Z,41.91
2019-02-23T12:30:19.057Z,41.87
2019-02-23T12:31:18.427Z,41.98
2019-02-23T12:32:18.349Z,41.88
2019-02-23T12:33:18.568Z,41.88
2019-02-23T12:34:18.181Z,41.9
2019-02-23T12:35:18.606Z,41.88
2019-02-23T12:36:18.154Z,41.93
2019-02-23T12:37:18.593Z,41.85
2019-02-23T12:38:18.239Z,41.87
2019-02-23T12:39:18.502Z,41.84
2019-02-23T12:40:18.324Z,41.78
2019-02-23T12:41:19.630Z,41.82
2019-02-23T12:42:18.531Z,41.88
2019-02-23T12:43:18.321Z,41.76
2019-02-23T12:44:19.006Z,41.81
2019-02-23T12:45:19.032Z,41.77
2019-02-23T12:46:18.027Z,41.97
2019-02-23T12:47:18.127Z,41.87
2019-02-23T12:48:18.364Z,41.77
2019-02-23T12:49:18.133Z,41.78
2019-02-23T12:50:18.285Z,41.91
2019-02-23T12:51:18.167Z,42.04
2019-02-23T12:52:18.407Z,42.13
2019-02-23T12:53:18.471Z,42.14
2019-02-23T12:54:19.957Z,42.15
2019-02-23T12:55:18.168Z,42.2